sensor_id;sensor_type;location;lat;lon;timestamp;P1;durP1;ratioP1;P2;durP2;ratioP2
26020;SDS011;13798;48.858;9.092;2023-10-08T00:01:34;11.27;;;5.78;;
26020;SDS011;13798;48.858;9.092;2023-10-08T00:04:00;9.32;;;5.70;;
26020;SDS011;13798;48.858;9.092;2023-10-08T00:06:29;11.00;;;6.10;;
26020;SDS011;13798;48.858;9.092;2023-10-08T00:08:55;9.27;;;5.90;;
26020;SDS011;13798;48.858;9.092;2023-10-08T00:11:25;11.63;;;6.20;;
26020;SDS011;13798;48.858;9.092;2023-10-08T00:13:51;8.68;;;5.60;;
26020;SDS011;13798;48.858;9.092;2023-10-08T00:16:21;8.35;;;5.93;;
26020;SDS011;13798;48.858;9.092;2023-10-08T00:18:46;8.77;;;5.90;;
26020;SDS011;13798;48.858;9.092;2023-10-08T08:18:56;14.52;;;7.35;;
26020;SDS011;13798;48.858;9.092;2023-10-08T08:21:22;12.93;;;7.20;;
26020;SDS011;13798;48.858;9.092;2023-10-08T08:24:09;11.10;;;7.25;;
26020;SDS011;13798;48.858;9.092;2023-10-08T08:27:00;8.85;;;6.20;;
26020;SDS011;13798;48.858;9.092;2023-10-08T08:29:32;9.23;;;5.80;;
26020;SDS011;13798;48.858;9.092;2023-10-08T08:32:09;10.20;;;6.18;;
26020;SDS011;13798;48.858;9.092;2023-10-08T08:34:37;9.77;;;5.75;;
26020;SDS011;13798;48.858;9.092;2023-10-08T08:37:08;9.20;;;5.93;;
26020;SDS011;13798;48.858;9.092;2023-10-08T08:39:38;13.13;;;6.47;;
26020;SDS011;13798;48.858;9.092;2023-10-08T08:42:04;9.25;;;5.90;;
26020;SDS011;13798;48.858;9.092;2023-10-08T08:44:30;11.77;;;6.00;;
26020;SDS011;13798;48.858;9.092;2023-10-08T08:46:58;10.15;;;5.78;;
26020;SDS011;13798;48.858;9.092;2023-10-08T08:49:29;11.50;;;5.97;;
26020;SDS011;13798;48.858;9.092;2023-10-08T08:51:59;11.40;;;5.82;;
26020;SDS011;13798;48.858;9.092;2023-10-08T08:54:26;10.40;;;5.82;;
26020;SDS011;13798;48.858;9.092;2023-10-08T08:56:55;11.57;;;5.80;;
26020;SDS011;13798;48.858;9.092;2023-10-08T08:59:36;14.13;;;6.43;;
26020;SDS011;13798;48.858;9.092;2023-10-08T09:02:02;9.80;;;5.63;;
26020;SDS011;13798;48.858;9.092;2023-10-08T09:04:32;9.23;;;5.47;;
26020;SDS011;13798;48.858;9.092;2023-10-08T09:07:01;8.20;;;4.93;;
26020;SDS011;13798;48.858;9.092;2023-10-08T09:09:31;9.15;;;5.25;;
26020;SDS011;13798;48.858;9.092;2023-10-08T09:11:57;9.97;;;5.27;;
26020;SDS011;13798;48.858;9.092;2023-10-08T09:14:23;10.95;;;5.55;;
26020;SDS011;13798;48.858;9.092;2023-10-08T09:16:57;8.52;;;5.20;;
26020;SDS011;13798;48.858;9.092;2023-10-08T09:19:24;9.60;;;5.00;;
26020;SDS011;13798;48.858;9.092;2023-10-08T09:24:27;8.55;;;5.22;;
26020;SDS011;13798;48.858;9.092;2023-10-08T09:26:54;7.53;;;4.83;;
26020;SDS011;13798;48.858;9.092;2023-10-08T09:29:23;8.48;;;5.22;;
26020;SDS011;13798;48.858;9.092;2023-10-08T09:31:53;7.53;;;5.00;;
26020;SDS011;13798;48.858;9.092;2023-10-08T09:34:26;10.63;;;5.20;;
26020;SDS011;13798;48.858;9.092;2023-10-08T09:36:53;7.57;;;5.00;;
26020;SDS011;13798;48.858;9.092;2023-10-08T09:39:21;8.85;;;5.00;;
26020;SDS011;13798;48.858;9.092;2023-10-08T09:41:53;9.25;;;5.13;;
26020;SDS011;13798;48.858;9.092;2023-10-08T09:44:19;5.50;;;4.90;;
26020;SDS011;13798;48.858;9.092;2023-10-08T09:46:48;10.00;;;5.20;;
26020;SDS011;13798;48.858;9.092;2023-10-08T09:49:24;7.88;;;5.03;;
26020;SDS011;13798;48.858;9.092;2023-10-08T09:51:58;9.07;;;5.00;;
26020;SDS011;13798;48.858;9.092;2023-10-08T09:54:30;10.32;;;4.80;;
26020;SDS011;13798;48.858;9.092;2023-10-08T09:57:17;6.70;;;4.90;;
26020;SDS011;13798;48.858;9.092;2023-10-08T09:59:43;10.20;;;5.05;;
26020;SDS011;13798;48.858;9.092;2023-10-08T10:02:11;8.17;;;4.70;;
26020;SDS011;13798;48.858;9.092;2023-10-08T10:04:41;10.10;;;5.00;;
26020;SDS011;13798;48.858;9.092;2023-10-08T10:07:09;7.50;;;5.15;;
26020;SDS011;13798;48.858;9.092;2023-10-08T10:09:42;8.68;;;4.70;;
26020;SDS011;13798;48.858;9.092;2023-10-08T10:12:10;9.60;;;5.38;;
26020;SDS011;13798;48.858;9.092;2023-10-08T10:14:45;9.88;;;5.18;;
26020;SDS011;13798;48.858;9.092;2023-10-08T10:17:15;9.25;;;4.88;;
26020;SDS011;13798;48.858;9.092;2023-10-08T10:19:49;8.32;;;4.82;;
26020;SDS011;13798;48.858;9.092;2023-10-08T10:22:26;13.68;;;5.10;;
26020;SDS011;13798;48.858;9.092;2023-10-08T10:25:02;7.35;;;4.97;;
26020;SDS011;13798;48.858;9.092;2023-10-08T10:30:20;13.95;;;4.80;;
26020;SDS011;13798;48.858;9.092;2023-10-08T10:32:48;9.77;;;5.22;;
26020;SDS011;13798;48.858;9.092;2023-10-08T10:35:17;10.50;;;4.40;;
26020;SDS011;13798;48.858;9.092;2023-10-08T10:37:45;9.27;;;4.95;;
26020;SDS011;13798;48.858;9.092;2023-10-08T10:40:20;8.00;;;4.55;;
26020;SDS011;13798;48.858;9.092;2023-10-08T10:43:05;8.10;;;4.90;;
26020;SDS011;13798;48.858;9.092;2023-10-08T10:45:32;9.75;;;5.28;;
26020;SDS011;13798;48.858;9.092;2023-10-08T10:48:04;10.13;;;5.20;;
26020;SDS011;13798;48.858;9.092;2023-10-08T10:50:41;8.70;;;4.97;;
26020;SDS011;13798;48.858;9.092;2023-10-08T10:53:25;11.05;;;5.40;;
26020;SDS011;13798;48.858;9.092;2023-10-08T10:55:52;6.78;;;5.18;;
26020;SDS011;13798;48.858;9.092;2023-10-08T10:58:34;11.68;;;5.38;;
26020;SDS011;13798;48.858;9.092;2023-10-08T11:01:06;9.15;;;5.00;;
26020;SDS011;13798;48.858;9.092;2023-10-08T11:03:52;11.50;;;6.10;;
26020;SDS011;13798;48.858;9.092;2023-10-08T11:06:21;10.05;;;5.20;;
26020;SDS011;13798;48.858;9.092;2023-10-08T11:08:51;10.48;;;5.40;;
26020;SDS011;13798;48.858;9.092;2023-10-08T11:11:26;10.05;;;5.40;;
26020;SDS011;13798;48.858;9.092;2023-10-08T11:13:57;10.45;;;5.07;;
26020;SDS011;13798;48.858;9.092;2023-10-08T11:16:25;12.48;;;5.60;;
26020;SDS011;13798;48.858;9.092;2023-10-08T11:18:52;11.18;;;6.60;;
26020;SDS011;13798;48.858;9.092;2023-10-08T11:21:22;13.13;;;5.67;;
26020;SDS011;13798;48.858;9.092;2023-10-08T11:23:49;9.85;;;5.38;;
26020;SDS011;13798;48.858;9.092;2023-10-08T11:26:24;11.02;;;6.20;;
26020;SDS011;13798;48.858;9.092;2023-10-08T11:29:00;11.25;;;5.70;;
26020;SDS011;13798;48.858;9.092;2023-10-08T11:31:28;10.40;;;5.55;;
26020;SDS011;13798;48.858;9.092;2023-10-08T11:34:01;10.65;;;5.68;;
26020;SDS011;13798;48.858;9.092;2023-10-08T11:36:33;12.10;;;6.75;;
26020;SDS011;13798;48.858;9.092;2023-10-08T11:39:11;13.37;;;6.20;;
26020;SDS011;13798;48.858;9.092;2023-10-08T12:18:36;18.45;;;6.82;;
26020;SDS011;13798;48.858;9.092;2023-10-08T12:34:03;15.27;;;6.28;;
26020;SDS011;13798;48.858;9.092;2023-10-08T12:36:29;14.67;;;7.07;;
26020;SDS011;13798;48.858;9.092;2023-10-08T12:38:58;13.02;;;6.50;;
26020;SDS011;13798;48.858;9.092;2023-10-08T12:41:24;17.55;;;7.00;;
26020;SDS011;13798;48.858;9.092;2023-10-08T12:43:52;17.05;;;6.60;;
26020;SDS011;13798;48.858;9.092;2023-10-08T12:46:18;17.67;;;6.97;;
26020;SDS011;13798;48.858;9.092;2023-10-08T12:48:48;16.55;;;6.68;;
26020;SDS011;13798;48.858;9.092;2023-10-08T12:51:18;14.70;;;6.95;;
26020;SDS011;13798;48.858;9.092;2023-10-08T12:53:48;16.92;;;6.93;;
26020;SDS011;13798;48.858;9.092;2023-10-08T12:56:24;18.52;;;7.35;;
26020;SDS011;13798;48.858;9.092;2023-10-08T12:58:59;15.63;;;6.38;;
26020;SDS011;13798;48.858;9.092;2023-10-08T13:01:29;17.05;;;6.60;;
26020;SDS011;13798;48.858;9.092;2023-10-08T13:03:55;14.93;;;6.67;;
26020;SDS011;13798;48.858;9.092;2023-10-08T13:06:26;14.32;;;6.07;;
26020;SDS011;13798;48.858;9.092;2023-10-08T13:08:55;19.10;;;6.90;;
26020;SDS011;13798;48.858;9.092;2023-10-08T13:11:23;18.75;;;7.05;;
26020;SDS011;13798;48.858;9.092;2023-10-08T13:13:53;16.77;;;7.05;;
26020;SDS011;13798;48.858;9.092;2023-10-08T13:16:22;23.90;;;7.63;;
26020;SDS011;13798;48.858;9.092;2023-10-08T13:18:49;12.55;;;6.07;;
26020;SDS011;13798;48.858;9.092;2023-10-08T13:21:15;14.95;;;6.97;;
26020;SDS011;13798;48.858;9.092;2023-10-08T13:23:41;15.50;;;6.30;;
26020;SDS011;13798;48.858;9.092;2023-10-08T13:26:07;15.07;;;6.03;;
26020;SDS011;13798;48.858;9.092;2023-10-08T13:28:35;14.15;;;6.57;;
26020;SDS011;13798;48.858;9.092;2023-10-08T13:31:04;13.55;;;6.53;;
26020;SDS011;13798;48.858;9.092;2023-10-08T13:33:36;16.85;;;6.47;;
26020;SDS011;13798;48.858;9.092;2023-10-08T13:36:04;17.45;;;7.28;;
26020;SDS011;13798;48.858;9.092;2023-10-08T13:38:38;14.82;;;6.32;;
26020;SDS011;13798;48.858;9.092;2023-10-08T13:41:06;22.80;;;6.97;;
26020;SDS011;13798;48.858;9.092;2023-10-08T13:43:39;12.95;;;6.30;;
26020;SDS011;13798;48.858;9.092;2023-10-08T13:46:06;15.27;;;6.80;;
26020;SDS011;13798;48.858;9.092;2023-10-08T13:48:37;14.15;;;6.00;;
26020;SDS011;13798;48.858;9.092;2023-10-08T13:51:04;15.00;;;6.77;;
26020;SDS011;13798;48.858;9.092;2023-10-08T13:53:36;13.70;;;6.30;;
26020;SDS011;13798;48.858;9.092;2023-10-08T13:56:04;16.80;;;6.53;;
26020;SDS011;13798;48.858;9.092;2023-10-08T13:58:30;13.10;;;6.23;;
26020;SDS011;13798;48.858;9.092;2023-10-08T14:00:59;14.48;;;6.40;;
26020;SDS011;13798;48.858;9.092;2023-10-08T14:03:38;16.02;;;6.00;;
26020;SDS011;13798;48.858;9.092;2023-10-08T14:06:06;15.82;;;6.75;;
26020;SDS011;13798;48.858;9.092;2023-10-08T14:08:33;15.68;;;5.95;;
26020;SDS011;13798;48.858;9.092;2023-10-08T14:10:58;13.40;;;6.50;;
26020;SDS011;13798;48.858;9.092;2023-10-08T14:13:28;13.68;;;5.97;;
26020;SDS011;13798;48.858;9.092;2023-10-08T14:15:56;15.75;;;5.72;;
26020;SDS011;13798;48.858;9.092;2023-10-08T14:18:22;14.37;;;6.13;;
26020;SDS011;13798;48.858;9.092;2023-10-08T14:20:53;14.18;;;6.45;;
26020;SDS011;13798;48.858;9.092;2023-10-08T14:23:22;12.77;;;6.10;;
26020;SDS011;13798;48.858;9.092;2023-10-08T14:25:50;13.68;;;6.32;;
26020;SDS011;13798;48.858;9.092;2023-10-08T14:28:17;15.52;;;6.18;;
26020;SDS011;13798;48.858;9.092;2023-10-08T14:31:05;10.33;;;5.80;;
26020;SDS011;13798;48.858;9.092;2023-10-08T14:33:34;12.07;;;6.00;;
26020;SDS011;13798;48.858;9.092;2023-10-08T14:36:08;16.70;;;6.03;;
26020;SDS011;13798;48.858;9.092;2023-10-08T14:38:53;12.85;;;6.07;;
26020;SDS011;13798;48.858;9.092;2023-10-08T14:41:38;13.20;;;6.28;;
26020;SDS011;13798;48.858;9.092;2023-10-08T14:44:22;11.82;;;6.47;;
26020;SDS011;13798;48.858;9.092;2023-10-08T14:46:48;12.68;;;6.47;;
26020;SDS011;13798;48.858;9.092;2023-10-08T14:49:15;16.38;;;5.95;;
26020;SDS011;13798;48.858;9.092;2023-10-08T14:51:41;14.40;;;6.10;;
26020;SDS011;13798;48.858;9.092;2023-10-08T14:54:07;14.15;;;5.82;;
26020;SDS011;13798;48.858;9.092;2023-10-08T14:56:33;11.60;;;5.72;;
26020;SDS011;13798;48.858;9.092;2023-10-08T14:59:02;17.92;;;6.13;;
26020;SDS011;13798;48.858;9.092;2023-10-08T15:01:28;13.77;;;5.50;;
26020;SDS011;13798;48.858;9.092;2023-10-08T15:03:57;16.75;;;6.43;;
26020;SDS011;13798;48.858;9.092;2023-10-08T15:06:24;13.67;;;6.37;;
26020;SDS011;13798;48.858;9.092;2023-10-08T15:08:51;13.52;;;5.80;;
26020;SDS011;13798;48.858;9.092;2023-10-08T15:11:17;15.63;;;5.88;;
26020;SDS011;13798;48.858;9.092;2023-10-08T15:13:43;18.00;;;6.40;;
26020;SDS011;13798;48.858;9.092;2023-10-08T15:16:11;11.13;;;5.63;;
26020;SDS011;13798;48.858;9.092;2023-10-08T15:18:37;15.80;;;6.30;;
26020;SDS011;13798;48.858;9.092;2023-10-08T15:21:07;13.10;;;6.40;;
26020;SDS011;13798;48.858;9.092;2023-10-08T15:23:34;14.10;;;6.33;;
26020;SDS011;13798;48.858;9.092;2023-10-08T15:26:00;12.03;;;5.80;;
26020;SDS011;13798;48.858;9.092;2023-10-08T15:28:26;19.02;;;5.75;;
26020;SDS011;13798;48.858;9.092;2023-10-08T15:30:52;14.13;;;6.13;;
26020;SDS011;13798;48.858;9.092;2023-10-08T15:33:17;15.80;;;6.03;;
26020;SDS011;13798;48.858;9.092;2023-10-08T15:35:43;15.30;;;6.40;;
26020;SDS011;13798;48.858;9.092;2023-10-08T15:38:08;13.85;;;5.72;;
26020;SDS011;13798;48.858;9.092;2023-10-08T15:40:34;13.97;;;6.00;;
26020;SDS011;13798;48.858;9.092;2023-10-08T15:42:59;16.17;;;6.40;;
26020;SDS011;13798;48.858;9.092;2023-10-08T15:45:25;14.18;;;5.90;;
26020;SDS011;13798;48.858;9.092;2023-10-08T15:47:51;17.27;;;5.70;;
26020;SDS011;13798;48.858;9.092;2023-10-08T15:50:18;10.80;;;5.80;;
26020;SDS011;13798;48.858;9.092;2023-10-08T15:52:49;14.10;;;6.03;;
26020;SDS011;13798;48.858;9.092;2023-10-08T15:55:15;12.53;;;5.37;;
26020;SDS011;13798;48.858;9.092;2023-10-08T15:57:42;18.53;;;6.00;;
26020;SDS011;13798;48.858;9.092;2023-10-08T16:00:08;12.45;;;5.72;;
26020;SDS011;13798;48.858;9.092;2023-10-08T16:02:34;15.60;;;6.43;;
26020;SDS011;13798;48.858;9.092;2023-10-08T16:05:00;13.45;;;5.65;;
26020;SDS011;13798;48.858;9.092;2023-10-08T16:07:25;15.18;;;6.15;;
26020;SDS011;13798;48.858;9.092;2023-10-08T16:09:51;16.67;;;5.80;;
26020;SDS011;13798;48.858;9.092;2023-10-08T16:12:16;15.37;;;6.33;;
26020;SDS011;13798;48.858;9.092;2023-10-08T16:14:43;16.05;;;5.80;;
26020;SDS011;13798;48.858;9.092;2023-10-08T16:17:09;17.65;;;6.45;;
26020;SDS011;13798;48.858;9.092;2023-10-08T16:19:38;15.82;;;6.75;;
26020;SDS011;13798;48.858;9.092;2023-10-08T16:22:05;13.43;;;6.33;;
26020;SDS011;13798;48.858;9.092;2023-10-08T16:24:30;16.77;;;6.22;;
26020;SDS011;13798;48.858;9.092;2023-10-08T16:26:56;15.37;;;5.83;;
26020;SDS011;13798;48.858;9.092;2023-10-08T16:29:22;18.13;;;6.28;;
26020;SDS011;13798;48.858;9.092;2023-10-08T16:31:48;18.17;;;6.07;;
26020;SDS011;13798;48.858;9.092;2023-10-08T16:34:14;14.45;;;5.88;;
26020;SDS011;13798;48.858;9.092;2023-10-08T16:36:41;16.20;;;6.67;;
26020;SDS011;13798;48.858;9.092;2023-10-08T16:39:09;16.17;;;7.20;;
26020;SDS011;13798;48.858;9.092;2023-10-08T16:41:42;17.23;;;7.70;;
26020;SDS011;13798;48.858;9.092;2023-10-08T16:44:08;20.27;;;10.32;;
26020;SDS011;13798;48.858;9.092;2023-10-08T16:46:36;27.27;;;11.15;;
26020;SDS011;13798;48.858;9.092;2023-10-08T16:49:06;24.80;;;11.53;;
26020;SDS011;13798;48.858;9.092;2023-10-08T16:51:31;34.25;;;16.35;;
26020;SDS011;13798;48.858;9.092;2023-10-08T16:53:58;61.35;;;34.15;;
26020;SDS011;13798;48.858;9.092;2023-10-08T16:56:28;108.15;;;64.60;;
26020;SDS011;13798;48.858;9.092;2023-10-08T16:58:55;136.90;;;80.07;;
26020;SDS011;13798;48.858;9.092;2023-10-08T17:01:21;114.63;;;71.00;;
26020;SDS011;13798;48.858;9.092;2023-10-08T17:03:46;102.65;;;57.90;;
26020;SDS011;13798;48.858;9.092;2023-10-08T17:06:12;73.43;;;42.10;;
26020;SDS011;13798;48.858;9.092;2023-10-08T17:08:38;52.22;;;30.77;;
26020;SDS011;13798;48.858;9.092;2023-10-08T17:11:04;49.20;;;27.57;;
26020;SDS011;13798;48.858;9.092;2023-10-08T17:13:35;46.78;;;23.98;;
26020;SDS011;13798;48.858;9.092;2023-10-08T17:16:04;36.75;;;18.75;;
26020;SDS011;13798;48.858;9.092;2023-10-08T17:18:32;37.60;;;19.58;;
26020;SDS011;13798;48.858;9.092;2023-10-08T17:20:58;36.00;;;17.77;;
26020;SDS011;13798;48.858;9.092;2023-10-08T17:23:23;34.03;;;16.17;;
26020;SDS011;13798;48.858;9.092;2023-10-08T17:25:49;22.10;;;10.85;;
26020;SDS011;13798;48.858;9.092;2023-10-08T17:28:16;22.88;;;10.00;;
26020;SDS011;13798;48.858;9.092;2023-10-08T17:30:43;24.85;;;12.77;;
26020;SDS011;13798;48.858;9.092;2023-10-08T17:33:09;21.50;;;11.20;;
26020;SDS011;13798;48.858;9.092;2023-10-08T17:35:35;17.88;;;9.23;;
26020;SDS011;13798;48.858;9.092;2023-10-08T17:38:01;20.98;;;9.18;;
26020;SDS011;13798;48.858;9.092;2023-10-08T17:40:27;15.70;;;8.98;;
26020;SDS011;13798;48.858;9.092;2023-10-08T17:42:54;16.10;;;8.75;;
26020;SDS011;13798;48.858;9.092;2023-10-08T17:45:21;17.15;;;8.95;;
26020;SDS011;13798;48.858;9.092;2023-10-08T17:47:57;19.08;;;9.48;;
26020;SDS011;13798;48.858;9.092;2023-10-08T17:50:23;18.10;;;8.87;;
26020;SDS011;13798;48.858;9.092;2023-10-08T17:52:48;16.77;;;8.07;;
26020;SDS011;13798;48.858;9.092;2023-10-08T17:55:15;24.58;;;9.75;;
26020;SDS011;13798;48.858;9.092;2023-10-08T17:57:43;27.55;;;9.75;;
26020;SDS011;13798;48.858;9.092;2023-10-08T18:00:09;20.00;;;9.27;;
26020;SDS011;13798;48.858;9.092;2023-10-08T18:02:36;22.23;;;8.88;;
26020;SDS011;13798;48.858;9.092;2023-10-08T18:05:03;18.90;;;8.13;;
26020;SDS011;13798;48.858;9.092;2023-10-08T18:07:30;20.23;;;8.05;;
26020;SDS011;13798;48.858;9.092;2023-10-08T18:09:56;21.40;;;8.27;;
26020;SDS011;13798;48.858;9.092;2023-10-08T18:12:21;20.58;;;8.70;;
26020;SDS011;13798;48.858;9.092;2023-10-08T18:14:47;27.43;;;8.73;;
26020;SDS011;13798;48.858;9.092;2023-10-08T18:17:13;21.60;;;8.45;;
26020;SDS011;13798;48.858;9.092;2023-10-08T18:19:38;18.63;;;8.73;;
26020;SDS011;13798;48.858;9.092;2023-10-08T18:22:06;23.00;;;8.18;;
26020;SDS011;13798;48.858;9.092;2023-10-08T18:24:34;21.63;;;9.10;;
26020;SDS011;13798;48.858;9.092;2023-10-08T18:27:01;21.48;;;9.25;;
26020;SDS011;13798;48.858;9.092;2023-10-08T18:29:27;19.17;;;8.83;;
26020;SDS011;13798;48.858;9.092;2023-10-08T18:31:52;23.75;;;9.00;;
26020;SDS011;13798;48.858;9.092;2023-10-08T18:34:18;17.67;;;9.03;;
26020;SDS011;13798;48.858;9.092;2023-10-08T18:36:44;17.95;;;8.27;;
